Time;durP1;ratioP1;P1;durP2;ratioP2;P2;SDS_P1;SDS_P2;PMS_P1;PMS_P2;Temp;Humidity;BMP_temperature;BMP_pressure;BME280_temperature;BME280_humidity;BME280_pressure;Samples;Min_cycle;Max_cycle;Signal;HPM_P1;HPM_P2
2024/02/02 00:00:57;;;;;;;0.10;0.10;;;;;;;;;;4996337;28;20031;-94
2024/02/02 00:03:23;;;;;;;0.10;0.10;;;;;;;;;;4985292;28;20122;-93
2024/02/02 00:05:49;;;;;;;0.10;0.10;;;;;;;;;;4978045;28;20034;-94
2024/02/02 00:08:15;;;;;;;0.10;0.10;;;;;;;;;;4980768;28;20037;-94
2024/02/02 00:10:40;;;;;;;0.10;0.10;;;;;;;;;;4984439;28;20023;-94
2024/02/02 00:13:06;;;;;;;0.10;0.10;;;;;;;;;;4980435;28;20490;-93
2024/02/02 00:15:32;;;;;;;0.00;0.00;;;;;;;;;;4988341;28;20058;-93
2024/02/02 00:17:58;;;;;;;0.10;0.10;;;;;;;;;;5001308;28;20031;-94
2024/02/02 00:20:24;;;;;;;0.10;0.10;;;;;;;;;;4977892;28;20034;-93
2024/02/02 00:22:50;;;;;;;0.10;0.10;;;;;;;;;;4987863;28;20027;-96
2024/02/02 00:25:16;;;;;;;0.10;0.10;;;;;;;;;;4992101;28;20006;-94
2024/02/02 00:27:42;;;;;;;0.08;0.08;;;;;;;;;;5002374;28;20031;-94
2024/02/02 00:30:08;;;;;;;0.00;0.00;;;;;;;;;;4978825;28;20026;-94
2024/02/02 00:32:34;;;;;;;0.08;0.08;;;;;;;;;;4984376;28;20091;-91
2024/02/02 00:35:00;;;;;;;0.00;0.00;;;;;;;;;;4983336;28;20035;-94
2024/02/02 00:37:26;;;;;;;0.00;0.00;;;;;;;;;;4998799;28;20035;-93
2024/02/02 00:39:52;;;;;;;0.00;0.00;;;;;;;;;;4981942;28;20066;-94
2024/02/02 00:42:18;;;;;;;0.10;0.10;;;;;;;;;;4997892;28;20034;-94
2024/02/02 00:44:44;;;;;;;0.10;0.10;;;;;;;;;;4996541;28;20027;-94
2024/02/02 00:47:10;;;;;;;0.00;0.00;;;;;;;;;;4999421;28;20023;-94
2024/02/02 00:49:36;;;;;;;0.05;0.05;;;;;;;;;;4993822;28;20038;-93
2024/02/02 00:52:02;;;;;;;0.10;0.10;;;;;;;;;;4983657;28;20162;-93
2024/02/02 00:54:28;;;;;;;0.10;0.10;;;;;;;;;;4984086;28;20369;-93
2024/02/02 00:56:53;;;;;;;0.00;0.00;;;;;;;;;;5000751;28;20034;-94
2024/02/02 00:59:19;;;;;;;0.00;0.00;;;;;;;;;;4983437;28;20031;-94
2024/02/02 01:01:45;;;;;;;0.10;0.10;;;;;;;;;;4984154;28;20033;-93
2024/02/02 01:04:11;;;;;;;0.10;0.10;;;;;;;;;;4981451;28;20027;-93
2024/02/02 01:06:37;;;;;;;0.00;0.00;;;;;;;;;;5001365;28;20033;-94
2024/02/02 01:09:04;;;;;;;0.10;0.10;;;;;;;;;;4998002;28;20031;-92
2024/02/02 01:11:30;;;;;;;0.08;0.08;;;;;;;;;;4983732;28;20026;-93
2024/02/02 01:13:56;;;;;;;0.10;0.10;;;;;;;;;;4984295;28;20046;-93
2024/02/02 01:16:22;;;;;;;0.00;0.00;;;;;;;;;;4983940;28;20054;-93
2024/02/02 01:18:48;;;;;;;0.10;0.10;;;;;;;;;;4999781;28;20067;-91
2024/02/02 01:21:14;;;;;;;0.10;0.10;;;;;;;;;;5004236;28;20035;-93
2024/02/02 01:23:40;;;;;;;0.10;0.10;;;;;;;;;;4983328;28;20031;-93
2024/02/02 01:26:06;;;;;;;0.10;0.10;;;;;;;;;;4988981;28;20034;-93
2024/02/02 01:28:32;;;;;;;0.00;0.00;;;;;;;;;;4989423;28;20038;-95
2024/02/02 01:30:58;;;;;;;0.00;0.00;;;;;;;;;;4990198;28;20034;-92
2024/02/02 01:33:24;;;;;;;0.00;0.00;;;;;;;;;;4983925;28;20094;-94
2024/02/02 01:35:50;;;;;;;0.10;0.10;;;;;;;;;;4987313;28;20026;-93
2024/02/02 01:38:16;;;;;;;0.10;0.10;;;;;;;;;;4985088;28;20037;-94
2024/02/02 01:40:42;;;;;;;0.10;0.10;;;;;;;;;;4990380;28;20061;-91
2024/02/02 01:43:08;;;;;;;0.10;0.10;;;;;;;;;;4985314;28;20027;-94
2024/02/02 01:45:34;;;;;;;0.05;0.05;;;;;;;;;;4984980;28;20027;-93
2024/02/02 01:48:00;;;;;;;0.10;0.10;;;;;;;;;;4986432;28;20031;-94
2024/02/02 01:50:26;;;;;;;0.10;0.10;;;;;;;;;;4985669;28;20034;-94
2024/02/02 01:52:52;;;;;;;0.00;0.00;;;;;;;;;;5001698;28;20062;-93
2024/02/02 01:55:18;;;;;;;0.10;0.10;;;;;;;;;;5003205;28;20070;-95
2024/02/02 01:57:44;;;;;;;0.10;0.10;;;;;;;;;;4983725;28;20031;-93
2024/02/02 02:00:11;;;;;;;0.00;0.00;;;;;;;;;;4985133;28;20033;-93
2024/02/02 02:02:37;;;;;;;0.10;0.10;;;;;;;;;;5006867;28;20023;-92
2024/02/02 02:05:03;;;;;;;0.10;0.10;;;;;;;;;;5008009;28;20035;-95
2024/02/02 02:07:29;;;;;;;0.10;0.10;;;;;;;;;;4982679;28;20054;-93
2024/02/02 02:09:55;;;;;;;0.10;0.10;;;;;;;;;;4988670;28;20089;-94
2024/02/02 02:12:21;;;;;;;0.10;0.10;;;;;;;;;;4992299;28;20555;-93
2024/02/02 02:14:47;;;;;;;0.00;0.00;;;;;;;;;;4987793;28;20027;-93
2024/02/02 02:17:13;;;;;;;0.10;0.10;;;;;;;;;;5001608;28;20038;-93
2024/02/02 02:19:39;;;;;;;0.00;0.00;;;;;;;;;;5003360;28;20054;-94
2024/02/02 02:22:05;;;;;;;0.00;0.00;;;;;;;;;;5001524;28;21060;-92
2024/02/02 02:24:31;;;;;;;0.00;0.00;;;;;;;;;;4989877;28;20125;-94
2024/02/02 02:26:57;;;;;;;0.00;0.00;;;;;;;;;;5002393;28;20033;-94
2024/02/02 02:29:23;;;;;;;0.10;0.10;;;;;;;;;;4988863;28;20142;-92
2024/02/02 02:31:55;;;;;;;0.10;0.10;;;5.60;99.90;;;;;;4985840;28;20027;-94
2024/02/02 02:34:23;;;;;;;0.10;0.10;;;5.60;99.90;;;;;;5012928;28;20039;-94
2024/02/02 02:36:49;;;;;;;0.10;0.10;;;;;;;;;;4989369;28;20027;-94
2024/02/02 02:39:16;;;;;;;0.08;0.08;;;;;;;;;;4986033;28;20136;-94
2024/02/02 02:41:42;;;;;;;0.10;0.10;;;;;;;;;;5006879;28;20033;-94
2024/02/02 02:44:08;;;;;;;0.10;0.10;;;;;;;;;;4983174;28;20027;-94
2024/02/02 02:46:34;;;;;;;0.00;0.00;;;;;;;;;;4989585;28;20034;-92
2024/02/02 02:49:00;;;;;;;0.10;0.10;;;;;;;;;;4999652;28;20023;-93
2024/02/02 02:51:26;;;;;;;0.10;0.10;;;;;;;;;;5007509;28;20057;-93
2024/02/02 02:53:52;;;;;;;0.10;0.10;;;;;;;;;;4989260;28;20026;-93
2024/02/02 02:56:18;;;;;;;0.00;0.00;;;;;;;;;;4985078;28;20021;-94
2024/02/02 02:58:44;;;;;;;0.00;0.00;;;;;;;;;;4990684;28;20038;-93
2024/02/02 03:01:09;;;;;;;0.10;0.10;;;;;;;;;;4990357;28;20035;-93
2024/02/02 03:03:35;;;;;;;0.10;0.10;;;;;;;;;;5003379;28;20023;-93
2024/02/02 03:06:01;;;;;;;0.00;0.00;;;;;;;;;;4984364;28;20031;-93
2024/02/02 03:08:27;;;;;;;0.05;0.05;;;;;;;;;;4983161;28;20027;-94
2024/02/02 03:10:53;;;;;;;0.00;0.00;;;;;;;;;;4999069;28;20030;-93
2024/02/02 03:13:19;;;;;;;0.00;0.00;;;;;;;;;;4990241;28;20098;-93
2024/02/02 03:15:45;;;;;;;0.00;0.00;;;;;;;;;;4990082;28;20022;-92
2024/02/02 03:18:12;;;;;;;0.00;0.00;;;;;;;;;;4987556;28;20035;-94
2024/02/02 03:20:38;;;;;;;0.03;0.03;;;;;;;;;;5002655;28;20026;-94
2024/02/02 03:23:04;;;;;;;0.00;0.00;;;;;;;;;;5003221;28;20132;-93
2024/02/02 03:25:30;;;;;;;0.08;0.08;;;;;;;;;;4997849;28;20034;-93
2024/02/02 03:27:56;;;;;;;0.00;0.00;;;;;;;;;;4979930;28;20119;-95
2024/02/02 03:30:22;;;;;;;0.00;0.00;;;;;;;;;;4983885;28;20427;-94
2024/02/02 03:32:49;;;;;;;0.00;0.00;;;;;;;;;;5003547;28;20035;-95
2024/02/02 03:35:15;;;;;;;0.10;0.10;;;;;;;;;;4997607;28;20027;-93
2024/02/02 03:37:41;;;;;;;0.00;0.00;;;;;;;;;;4986820;28;20043;-92
2024/02/02 03:40:08;;;;;;;0.00;0.00;;;6.20;99.90;;;;;;4984577;28;20051;-92
2024/02/02 03:42:34;;;;;;;0.10;0.10;;;;;;;;;;4996873;28;20050;-95
2024/02/02 03:45:00;;;;;;;0.10;0.10;;;;;;;;;;5004133;28;20046;-95
2024/02/02 03:47:26;;;;;;;0.10;0.10;;;;;;;;;;4987145;28;20027;-94
2024/02/02 03:49:52;;;;;;;0.00;0.00;;;;;;;;;;5004185;28;20054;-93
2024/02/02 03:52:23;;;;;;;0.10;0.10;;;;;;;;;;4984505;28;20034;-94
2024/02/02 03:54:49;;;;;;;0.10;0.10;;;;;;;;;;4983307;28;20035;-93
2024/02/02 03:57:15;;;;;;;0.10;0.10;;;;;;;;;;4995128;28;20035;-93
2024/02/02 03:59:41;;;;;;;0.05;0.05;;;;;;;;;;4997568;28;20110;-93
2024/02/02 04:02:07;;;;;;;0.00;0.00;;;;;;;;;;4979696;28;20042;-94
2024/02/02 04:04:33;;;;;;;0.00;0.00;;;;;;;;;;4992051;28;20026;-93
2024/02/02 04:06:58;;;;;;;0.10;0.10;;;;;;;;;;4980244;28;20058;-92
2024/02/02 04:09:24;;;;;;;0.00;0.00;;;;;;;;;;4981100;28;20034;-92
2024/02/02 04:11:50;;;;;;;0.10;0.10;;;;;;;;;;4986207;28;20027;-93
2024/02/02 04:14:16;;;;;;;0.08;0.08;;;;;;;;;;4986698;28;20515;-93
2024/02/02 04:16:42;;;;;;;0.10;0.10;;;;;;;;;;4991019;28;20103;-94
2024/02/02 04:19:14;;;;;;;0.10;0.10;;;;;;;;;;4985823;28;20042;-94
2024/02/02 04:21:40;;;;;;;0.03;0.03;;;;;;;;;;4998144;28;20038;-92
2024/02/02 04:24:06;;;;;;;0.08;0.08;;;;;;;;;;4985212;28;20026;-94
2024/02/02 04:26:32;;;;;;;0.10;0.10;;;;;;;;;;4987041;28;20034;-93
2024/02/02 04:28:58;;;;;;;0.00;0.00;;;;;;;;;;4988536;28;20027;-93
2024/02/02 04:31:24;;;;;;;0.10;0.10;;;;;;;;;;4988743;28;20073;-94
2024/02/02 04:33:50;;;;;;;0.10;0.10;;;;;;;;;;4987634;28;20027;-95
2024/02/02 04:36:16;;;;;;;0.00;0.00;;;;;;;;;;4982725;28;20048;-93
2024/02/02 04:38:42;;;;;;;0.00;0.00;;;;;;;;;;5001206;28;20027;-94
2024/02/02 04:41:08;;;;;;;0.00;0.00;;;;;;;;;;4988647;28;20058;-94
2024/02/02 04:43:34;;;;;;;0.10;0.10;;;;;;;;;;4989429;28;20047;-95
2024/02/02 04:46:00;;;;;;;0.00;0.00;;;;;;;;;;4981862;28;20014;-94
2024/02/02 04:48:26;;;;;;;0.00;0.00;;;;;;;;;;4989412;28;20027;-95
2024/02/02 04:50:52;;;;;;;0.10;0.10;;;;;;;;;;4989396;28;20039;-96
2024/02/02 04:53:18;;;;;;;0.10;0.10;;;;;;;;;;4979924;28;20054;-94
2024/02/02 04:55:44;;;;;;;0.10;0.10;;;;;;;;;;5003021;28;20031;-94
2024/02/02 04:58:10;;;;;;;0.05;0.05;;;;;;;;;;4984603;28;20038;-94
2024/02/02 05:00:36;;;;;;;0.10;0.10;;;;;;;;;;4982972;28;20030;-94
2024/02/02 05:03:02;;;;;;;0.00;0.00;;;;;;;;;;5002894;28;20035;-94
2024/02/02 05:05:28;;;;;;;0.00;0.00;;;;;;;;;;5007178;28;20056;-94
2024/02/02 05:07:54;;;;;;;0.00;0.00;;;;;;;;;;4985181;28;20031;-95
2024/02/02 05:10:20;;;;;;;0.10;0.10;;;;;;;;;;4984990;28;20042;-95
2024/02/02 05:12:46;;;;;;;0.10;0.10;;;;;;;;;;4984826;28;20478;-93
2024/02/02 05:15:12;;;;;;;0.00;0.00;;;;;;;;;;4984403;28;20039;-94
2024/02/02 05:17:37;;;;;;;0.00;0.00;;;;;;;;;;5002525;28;20031;-94
2024/02/02 05:20:04;;;;;;;0.10;0.10;;;;;;;;;;4984251;28;20031;-93
2024/02/02 05:22:30;;;;;;;0.10;0.10;;;;;;;;;;4999024;28;20058;-95
2024/02/02 05:24:56;;;;;;;0.10;0.10;;;;;;;;;;5003751;28;20027;-93
2024/02/02 05:27:22;;;;;;;0.00;0.00;;;;;;;;;;4984336;28;20026;-95
2024/02/02 05:29:49;;;;;;;0.00;0.00;;;;;;;;;;5000520;28;20104;-93
2024/02/02 05:32:14;;;;;;;0.10;0.10;;;;;;;;;;4983032;28;20035;-95
2024/02/02 05:34:43;;;;;;;0.10;0.10;;;6.00;99.90;;;;;;4980163;28;20035;-94
2024/02/02 05:37:09;;;;;;;0.00;0.00;;;;;;;;;;5005072;28;20050;-93
2024/02/02 05:39:35;;;;;;;0.10;0.10;;;;;;;;;;5003570;28;20038;-94
2024/02/02 05:42:01;;;;;;;0.00;0.00;;;;;;;;;;4998634;28;20035;-93
2024/02/02 05:44:27;;;;;;;0.10;0.10;;;;;;;;;;5000635;28;20031;-94
2024/02/02 05:46:53;;;;;;;0.00;0.00;;;;;;;;;;4985039;28;20046;-93
2024/02/02 05:49:19;;;;;;;0.00;0.00;;;;;;;;;;4979869;28;20102;-93
2024/02/02 05:51:45;;;;;;;0.10;0.10;;;;;;;;;;5003587;28;20031;-93
2024/02/02 05:54:11;;;;;;;0.10;0.10;;;;;;;;;;5002347;28;20031;-92
2024/02/02 05:56:37;;;;;;;0.08;0.08;;;;;;;;;;4978189;28;20033;-93
2024/02/02 05:59:03;;;;;;;0.05;0.05;;;;;;;;;;5004653;28;20094;-93
2024/02/02 06:01:29;;;;;;;0.10;0.10;;;;;;;;;;4984609;28;20019;-94
2024/02/02 06:03:56;;;;;;;0.10;0.10;;;;;;;;;;4978925;28;20027;-93
2024/02/02 06:06:22;;;;;;;0.10;0.10;;;;;;;;;;4989410;28;20062;-93
2024/02/02 06:08:48;;;;;;;0.10;0.10;;;;;;;;;;4985296;28;20525;-93
2024/02/02 06:11:14;;;;;;;0.00;0.00;;;;;;;;;;4979839;28;20033;-93
2024/02/02 06:13:40;;;;;;;0.10;0.10;;;;;;;;;;4995393;28;20018;-93
2024/02/02 06:16:06;;;;;;;0.10;0.10;;;;;;;;;;4986254;28;20035;-93
2024/02/02 06:18:33;;;;;;;0.10;0.10;;;;;;;;;;4986529;28;20309;-93
2024/02/02 06:20:59;;;;;;;0.05;0.05;;;;;;;;;;4983022;28;20034;-95
2024/02/02 06:23:25;;;;;;;0.10;0.10;;;;;;;;;;4999325;28;20062;-94
2024/02/02 06:25:50;;;;;;;0.10;0.10;;;;;;;;;;4998077;28;20091;-95
2024/02/02 06:28:17;;;;;;;0.00;0.00;;;;;;;;;;5001768;28;20044;-93
2024/02/02 06:30:43;;;;;;;0.10;0.10;;;;;;;;;;4987866;28;20058;-94
2024/02/02 06:33:11;;;;;;;0.10;0.10;;;;;;;;;;4983472;28;20078;-94
2024/02/02 06:35:37;;;;;;;0.00;0.00;;;;;;;;;;4987094;28;20031;-93
2024/02/02 06:38:03;;;;;;;0.10;0.10;;;;;;;;;;4984205;28;20660;-93
2024/02/02 06:40:29;;;;;;;0.10;0.10;;;;;;;;;;4982547;28;20508;-94
2024/02/02 06:42:55;;;;;;;0.00;0.00;;;;;;;;;;4979664;28;20027;-94
2024/02/02 06:45:22;;;;;;;0.10;0.10;;;;;;;;;;4987110;28;20281;-93
2024/02/02 06:47:48;;;;;;;0.10;0.10;;;;;;;;;;4985360;28;20027;-93
2024/02/02 06:50:14;;;;;;;0.10;0.10;;;;;;;;;;4973778;28;20045;-94
2024/02/02 06:52:40;;;;;;;0.10;0.10;;;;;;;;;;4984992;28;20034;-93
2024/02/02 06:55:06;;;;;;;0.10;0.10;;;;;;;;;;5003254;28;20035;-93
2024/02/02 06:57:32;;;;;;;0.10;0.10;;;;;;;;;;5002811;28;20754;-94
2024/02/02 07:00:00;;;;;;;0.10;0.10;;;6.10;99.90;;;;;;4982205;28;20046;-94
2024/02/02 07:02:30;;;;;;;0.00;0.00;;;6.10;99.90;;;;;;4999609;28;20038;-93
2024/02/02 07:04:56;;;;;;;0.10;0.10;;;;;;;;;;4981781;28;20095;-93
2024/02/02 07:07:22;;;;;;;0.10;0.10;;;;;;;;;;4974572;28;20070;-94
2024/02/02 07:09:55;;;;;;;0.10;0.10;;;6.20;99.90;;;;;;4979792;28;20133;-94
2024/02/02 07:12:51;;;;;;;0.00;0.00;;;6.20;99.90;;;;;;4983298;28;20038;-94
2024/02/02 07:15:19;;;;;;;0.00;0.00;;;6.10;99.90;;;;;;4994490;28;20035;-95
2024/02/02 07:17:45;;;;;;;0.00;0.00;;;;;;;;;;5000681;28;20059;-92
2024/02/02 07:20:24;;;;;;;0.00;0.00;;;6.20;99.90;;;;;;4988357;28;20039;-92
2024/02/02 07:22:50;;;;;;;0.10;0.10;;;;;;;;;;4980058;28;20097;-93
2024/02/02 07:25:18;;;;;;;0.10;0.10;;;;;;;;;;4989121;28;20038;-93
2024/02/02 07:27:51;;;;;;;0.10;0.10;;;;;;;;;;4985836;28;20039;-92
2024/02/02 07:30:43;;;;;;;0.00;0.00;;;6.10;99.90;;;;;;4981770;28;20035;-92
2024/02/02 07:33:22;;;;;;;0.10;0.10;;;6.20;99.90;;;;;;4996744;28;20027;-93
2024/02/02 07:35:48;;;;;;;0.00;0.00;;;;;;;;;;4996465;28;20181;-93
2024/02/02 07:38:37;;;;;;;0.10;0.10;;;;;;;;;;4979593;28;20062;-93
2024/02/02 07:41:04;;;;;;;0.00;0.00;;;;;;;;;;4965472;28;20047;-92
2024/02/02 07:43:33;;;;;;;0.10;0.10;;;;;;;;;;4973532;28;20121;-92
2024/02/02 07:46:02;;;;;;;0.00;0.00;;;;;;;;;;4990281;28;20042;-93
2024/02/02 07:48:28;;;;;;;0.10;0.10;;;;;;;;;;4967124;28;20090;-93
2024/02/02 07:50:54;;;;;;;0.10;0.10;;;;;;;;;;4985441;28;20066;-93
2024/02/02 07:53:20;;;;;;;0.03;0.03;;;;;;;;;;4978669;28;20035;-91
2024/02/02 07:55:46;;;;;;;0.03;0.03;;;;;;;;;;4968892;28;20039;-93
2024/02/02 07:58:12;;;;;;;0.00;0.00;;;;;;;;;;4984150;28;20401;-91
2024/02/02 08:00:38;;;;;;;0.10;0.10;;;;;;;;;;4968882;28;20035;-92
2024/02/02 08:03:04;;;;;;;0.05;0.05;;;;;;;;;;4971850;28;20450;-92
2024/02/02 08:05:30;;;;;;;0.00;0.00;;;;;;;;;;4977885;28;20034;-92
2024/02/02 08:07:56;;;;;;;0.10;0.10;;;;;;;;;;4985369;28;20034;-92
2024/02/02 08:10:22;;;;;;;0.00;0.00;;;;;;;;;;4983762;28;20070;-92
2024/02/02 08:12:48;;;;;;;0.10;0.10;;;;;;;;;;4987329;28;20131;-92
2024/02/02 08:15:14;;;;;;;0.10;0.10;;;;;;;;;;4967020;28;20091;-92
2024/02/02 08:17:40;;;;;;;0.00;0.00;;;;;;;;;;4970698;28;20062;-92
2024/02/02 08:20:06;;;;;;;0.10;0.10;;;;;;;;;;4976879;28;20031;-92
2024/02/02 08:22:32;;;;;;;0.00;0.00;;;;;;;;;;4964897;28;20421;-93
2024/02/02 08:24:58;;;;;;;0.03;0.03;;;;;;;;;;4964947;28;20166;-93
2024/02/02 08:27:24;;;;;;;0.10;0.10;;;;;;;;;;4984570;28;20157;-92
2024/02/02 08:29:49;;;;;;;0.10;0.10;;;;;;;;;;4968415;28;20030;-92
2024/02/02 08:32:15;;;;;;;0.05;0.05;;;;;;;;;;4975913;28;20466;-92
2024/02/02 08:34:41;;;;;;;0.03;0.03;;;;;;;;;;4973636;28;20054;-92
2024/02/02 08:37:08;;;;;;;0.10;0.10;;;;;;;;;;4987008;28;20030;-92
2024/02/02 08:39:35;;;;;;;0.10;0.10;;;6.90;99.90;;;;;;4969328;28;20623;-93
2024/02/02 08:42:01;;;;;;;0.10;0.10;;;;;;;;;;4979781;28;20033;-92
2024/02/02 08:44:31;;;;;;;0.10;0.10;;;;;;;;;;4979735;28;20058;-92
2024/02/02 08:46:57;;;;;;;0.10;0.10;;;7.00;99.90;;;;;;4986027;28;20031;-94
2024/02/02 08:49:53;;;;;;;0.00;0.00;;;7.20;99.90;;;;;;4979341;28;20042;-92
2024/02/02 08:52:26;;;;;;;0.10;0.10;;;7.20;99.90;;;;;;4962083;28;20256;-92
2024/02/02 08:54:51;;;;;;;0.10;0.10;;;;;;;;;;4972127;28;20027;-93
2024/02/02 08:57:55;;;;;;;0.00;0.00;;;7.20;99.90;;;;;;4968032;28;20027;-91
2024/02/02 09:00:41;;;;;;;0.10;0.10;;;7.20;99.90;;;;;;4952062;28;20051;-91
2024/02/02 09:03:19;;;;;;;0.10;0.10;;;7.20;99.90;;;;;;4971580;28;20035;-93
2024/02/02 09:05:52;;;;;;;0.10;0.10;;;7.30;99.90;;;;;;4971100;28;20422;-93
2024/02/02 09:08:34;;;;;;;0.00;0.00;;;7.30;99.90;;;;;;4979633;28;20093;-92
2024/02/02 09:11:01;;;;;;;0.10;0.10;;;;;;;;;;4972527;28;20034;-90
2024/02/02 09:13:32;;;;;;;0.10;0.10;;;7.30;99.90;;;;;;4969062;28;20050;-92
2024/02/02 09:15:58;;;;;;;0.10;0.10;;;;;;;;;;4984711;28;20034;-95
2024/02/02 09:18:40;;;;;;;0.00;0.00;;;7.30;99.90;;;;;;4968387;28;20371;-93
2024/02/02 09:21:07;;;;;;;0.10;0.10;;;;;;;;;;4983540;28;20042;-91
2024/02/02 09:23:34;;;;;;;0.00;0.00;;;;;;;;;;4970711;28;20438;-91
2024/02/02 09:26:38;;;;;;;0.10;0.10;;;7.40;99.90;;;;;;4965175;28;20035;-93
2024/02/02 09:29:04;;;;;;;0.00;0.00;;;;;;;;;;4966888;28;20042;-93
2024/02/02 10:37:31;;;;;;;0.00;0.00;;;9.10;99.90;;;;;;4992443;28;20054;-89
2024/02/02 10:40:21;;;;;;;0.08;0.08;;;7.70;99.90;;;;;;4992789;28;20030;-88
2024/02/02 10:43:24;;;;;;;0.00;0.00;;;7.70;99.90;;;;;;4992908;28;20022;-88
2024/02/02 10:46:07;;;;;;;0.10;0.10;;;7.90;99.90;;;;;;4991441;28;20026;-88
2024/02/02 10:49:02;;;;;;;0.10;0.10;;;7.80;99.90;;;;;;4991831;28;20023;-88
2024/02/02 10:51:47;;;;;;;0.10;0.10;;;7.80;99.90;;;;;;4988497;28;20034;-88
2024/02/02 10:54:28;;;;;;;0.03;0.03;;;7.70;99.90;;;;;;4991224;28;20022;-87
2024/02/02 10:57:05;;;;;;;0.10;0.10;;;7.90;99.90;;;;;;4992649;28;20117;-89
2024/02/02 10:59:40;;;;;;;0.10;0.10;;;7.70;99.90;;;;;;4985904;28;20031;-89
2024/02/02 11:02:14;;;;;;;0.10;0.10;;;7.80;99.90;;;;;;4991367;28;20061;-88
2024/02/02 11:04:40;;;;;;;0.10;0.10;;;;;;;;;;4992740;28;20050;-88
2024/02/02 11:07:29;;;;;;;0.10;0.10;;;8.20;99.90;;;;;;4991561;28;20042;-88
2024/02/02 11:10:03;;;;;;;0.10;0.10;;;7.90;99.90;;;;;;4985955;28;20035;-87
2024/02/02 11:12:29;;;;;;;0.00;0.00;;;;;;;;;;4990095;28;20324;-88
2024/02/02 11:15:12;;;;;;;0.10;0.10;;;8.00;99.90;;;;;;4991627;28;20080;-89
2024/02/02 11:18:10;;;;;;;0.10;0.10;;;7.90;99.90;;;;;;4990603;28;20092;-89
2024/02/02 11:20:58;;;;;;;0.00;0.00;;;7.80;99.90;;;;;;4985954;28;20042;-87
2024/02/02 11:23:48;;;;;;;0.10;0.10;;;7.90;99.90;;;;;;5007023;28;20773;-89
2024/02/02 11:26:24;;;;;;;0.10;0.10;;;8.00;99.90;;;;;;4978061;28;20046;-89
2024/02/02 11:29:08;;;;;;;0.08;0.08;;;8.10;99.90;;;;;;4986984;28;20122;-88
2024/02/02 11:31:42;;;;;;;0.10;0.10;;;7.90;99.90;;;;;;4989023;28;20391;-87
2024/02/02 11:34:34;;;;;;;0.00;0.00;;;7.90;99.90;;;;;;4992528;28;20484;-88
2024/02/02 11:37:19;;;;;;;0.10;0.10;;;8.00;99.90;;;;;;4992714;28;20042;-89
2024/02/02 11:39:56;;;;;;;0.10;0.10;;;8.10;99.90;;;;;;4988344;28;20034;-87
2024/02/02 11:42:24;;;;;;;0.00;0.00;;;8.10;99.90;;;;;;4992575;28;20121;-89
2024/02/02 11:44:54;;;;;;;0.00;0.00;;;8.10;99.90;;;;;;4986630;28;20077;-89
2024/02/02 11:47:22;;;;;;;0.10;0.10;;;8.10;99.90;;;;;;4992059;28;20475;-89
2024/02/02 11:49:54;;;;;;;0.00;0.00;;;8.20;99.90;;;;;;4989929;28;20034;-88
2024/02/02 11:52:23;;;;;;;0.00;0.00;;;8.20;99.90;;;;;;4991484;28;20080;-87
2024/02/02 11:55:10;;;;;;;0.10;0.10;;;8.30;99.90;;;;;;4988746;28;20022;-88
2024/02/02 11:57:40;;;;;;;0.08;0.08;;;8.20;99.90;;;;;;4987588;28;20080;-88
2024/02/02 12:00:10;;;;;;;0.00;0.00;;;8.10;99.90;;;;;;4989432;28;20069;-88
2024/02/02 12:02:57;;;;;;;0.10;0.10;;;8.20;99.90;;;;;;4985332;28;20022;-88
2024/02/02 12:05:30;;;;;;;0.10;0.10;;;8.30;99.90;;;;;;4987288;28;20114;-88
2024/02/02 12:08:15;;;;;;;0.10;0.10;;;8.30;99.90;;;;;;4988613;28;20030;-89
2024/02/02 12:10:42;;;;;;;0.00;0.00;;;;;;;;;;4985863;28;20057;-88
2024/02/02 12:13:11;;;;;;;0.10;0.10;;;8.20;99.90;;;;;;4984701;28;20494;-89
2024/02/02 12:15:37;;;;;;;0.10;0.10;;;;;;;;;;4986403;28;20030;-88
2024/02/02 12:18:04;;;;;;;0.00;0.00;;;;;;;;;;4992729;28;20129;-89
2024/02/02 12:20:30;;;;;;;0.10;0.10;;;;;;;;;;4987023;28;20029;-87
2024/02/02 12:22:56;;;;;;;0.00;0.00;;;;;;;;;;4987983;28;20031;-88
2024/02/02 12:25:24;;;;;;;0.00;0.00;;;;;;;;;;4990495;28;20031;-88
2024/02/02 12:27:50;;;;;;;0.10;0.10;;;;;;;;;;4986774;28;20342;-89
2024/02/02 12:30:16;;;;;;;0.10;0.10;;;8.70;99.90;;;;;;4988568;28;20034;-87
2024/02/02 12:32:53;;;;;;;0.03;0.03;;;8.60;99.90;;;;;;4985816;28;20169;-89
2024/02/02 12:35:21;;;;;;;0.10;0.10;;;8.60;99.90;;;;;;4987447;28;20030;-88
2024/02/02 12:37:47;;;;;;;0.03;0.03;;;;;;;;;;4987525;28;20042;-89
2024/02/02 12:40:13;;;;;;;0.10;0.10;;;;;;;;;;4985637;28;20077;-87
2024/02/02 12:42:40;;;;;;;0.00;0.00;;;;;;;;;;4986902;28;20053;-87
2024/02/02 12:45:09;;;;;;;0.00;0.00;;;10.30;99.90;;;;;;4987218;28;20030;-89
2024/02/02 12:47:38;;;;;;;0.10;0.10;;;8.70;99.90;;;;;;4989429;28;20487;-88
2024/02/02 12:50:09;;;;;;;0.10;0.10;;;8.60;99.90;;;;;;4990000;28;20043;-88
2024/02/02 12:52:35;;;;;;;0.00;0.00;;;;;;;;;;4987133;28;20206;-89
2024/02/02 12:55:01;;;;;;;0.00;0.00;;;;;;;;;;4991220;28;20053;-88
2024/02/02 12:57:27;;;;;;;0.00;0.00;;;;;;;;;;4992167;28;20081;-88
2024/02/02 12:59:53;;;;;;;0.10;0.10;;;9.00;99.90;;;;;;4991612;28;20034;-87
2024/02/02 13:02:20;;;;;;;0.10;0.10;;;9.30;99.90;;;;;;4988874;28;20472;-89
2024/02/02 13:04:53;;;;;;;0.10;0.10;;;9.60;99.90;;;;;;4972921;28;20030;-89
2024/02/02 13:07:19;;;;;;;0.00;0.00;;;;;;;;;;4977730;28;20106;-89
2024/02/02 13:09:52;;;;;;;0.00;0.00;;;9.70;99.90;;;;;;4987548;28;20027;-87
2024/02/02 13:12:28;;;;;;;0.00;0.00;;;9.90;99.90;;;;;;4990105;28;20049;-87
2024/02/02 13:15:05;;;;;;;0.00;0.00;;;9.80;99.90;;;;;;4989487;28;20134;-89
2024/02/02 13:17:32;;;;;;;0.00;0.00;;;;;;;;;;4991398;28;20030;-88
2024/02/02 13:20:08;;;;;;;0.00;0.00;;;;;;;;;;4990353;28;20026;-89
2024/02/02 13:22:37;;;;;;;0.00;0.00;;;9.90;99.90;;;;;;4989165;28;20030;-88
2024/02/02 13:25:03;;;;;;;0.00;0.00;;;;;;;;;;4992608;28;20019;-88
2024/02/02 13:27:30;;;;;;;0.10;0.10;;;;;;;;;;4995488;28;20037;-89
2024/02/02 13:29:57;;;;;;;0.00;0.00;;;9.50;99.90;;;;;;4995807;28;20049;-88
2024/02/02 13:32:27;;;;;;;0.10;0.10;;;9.50;99.90;;;;;;4991863;28;20129;-89
2024/02/02 13:35:00;;;;;;;0.00;0.00;;;9.50;99.90;;;;;;4976953;28;20038;-89
2024/02/02 13:37:29;;;;;;;0.00;0.00;;;9.40;99.90;;;;;;4990837;28;20566;-87
2024/02/02 13:39:59;;;;;;;0.00;0.00;;;9.40;99.90;;;;;;4991030;28;20026;-90
2024/02/02 13:42:25;;;;;;;;;;;9.40;99.90;;;;;;4995807;28;20033;-88
2024/02/02 13:44:52;;;;;;;0.00;0.00;;;;;;;;;;4995785;28;19906;-87
2024/02/02 13:47:20;;;;;;;0.10;0.10;;;;;;;;;;4996538;28;20030;-89
2024/02/02 13:49:49;;;;;;;0.00;0.00;;;;;;;;;;4996005;28;20084;-90
2024/02/02 13:52:17;;;;;;;0.00;0.00;;;9.10;99.90;;;;;;4993938;28;20029;-89
2024/02/02 13:54:43;;;;;;;0.10;0.10;;;;;;;;;;4995189;28;20483;-89
2024/02/02 13:57:15;;;;;;;0.00;0.00;;;9.10;99.90;;;;;;4992901;28;20081;-89
2024/02/02 13:59:41;;;;;;;0.00;0.00;;;;;;;;;;4995659;28;20490;-88
2024/02/02 14:02:07;;;;;;;0.00;0.00;;;;;;;;;;4994278;28;20029;-88
2024/02/02 14:04:34;;;;;;;0.00;0.00;;;;;;;;;;4995451;28;20062;-89
2024/02/02 14:07:00;;;;;;;0.00;0.00;;;;;;;;;;4994284;28;20500;-88
2024/02/02 14:09:26;;;;;;;0.00;0.00;;;;;;;;;;4994070;28;20543;-91
2024/02/02 14:12:01;;;;;;;0.00;0.00;;;8.90;99.90;;;;;;4988624;28;20392;-89
2024/02/02 14:14:28;;;;;;;0.05;0.05;;;;;;;;;;4984527;28;20037;-89
2024/02/02 14:17:04;;;;;;;0.05;0.05;;;8.70;99.90;;;;;;4992981;28;20037;-89
2024/02/02 14:19:30;;;;;;;0.00;0.00;;;;;;;;;;4997788;28;20061;-89
2024/02/02 14:22:04;;;;;;;0.10;0.10;;;8.50;99.90;;;;;;4994145;28;20706;-90
2024/02/02 14:24:30;;;;;;;0.10;0.10;;;;;;;;;;4996075;28;20022;-88
2024/02/02 14:26:57;;;;;;;0.00;0.00;;;8.40;99.90;;;;;;4992696;28;20583;-89
2024/02/02 14:29:25;;;;;;;0.10;0.10;;;9.10;99.90;;;;;;4992989;28;20049;-88
2024/02/02 14:31:57;;;;;;;0.00;0.00;;;8.40;99.90;;;;;;4989556;28;20635;-89
2024/02/02 14:34:25;;;;;;;0.00;0.00;;;8.50;99.90;;;;;;4994609;28;20018;-89
2024/02/02 14:36:51;;;;;;;0.10;0.10;;;;;;;;;;4993371;28;20050;-88
2024/02/02 14:39:23;;;;;;;0.00;0.00;;;8.40;99.90;;;;;;4977668;28;20030;-89
2024/02/02 14:41:49;;;;;;;0.00;0.00;;;;;;;;;;4985541;28;20408;-89
2024/02/02 14:44:15;;;;;;;0.00;0.00;;;;;;;;;;4975388;28;20070;-89
2024/02/02 14:46:41;;;;;;;0.00;0.00;;;;;;;;;;4988956;28;20058;-88
2024/02/02 14:49:08;;;;;;;0.10;0.10;;;;;;;;;;4995530;28;20029;-89
2024/02/02 14:51:34;;;;;;;0.10;0.10;;;;;;;;;;4994964;28;20026;-88
2024/02/02 14:54:00;;;;;;;0.10;0.10;;;;;;;;;;4997045;28;20029;-89
2024/02/02 14:56:26;;;;;;;0.00;0.00;;;;;;;;;;4994439;28;20029;-87
2024/02/02 14:58:54;;;;;;;0.00;0.00;;;;;;;;;;4992215;28;20027;-89
2024/02/02 15:01:22;;;;;;;0.10;0.10;;;;;;;;;;4994973;28;20053;-89
2024/02/02 15:03:48;;;;;;;0.00;0.00;;;;;;;;;;4994539;28;20015;-88
2024/02/02 15:06:14;;;;;;;0.00;0.00;;;;;;;;;;4992165;28;20088;-88
2024/02/02 15:08:39;;;;;;;0.10;0.10;;;;;;;;;;4995086;28;20622;-88
2024/02/02 15:11:07;;;;;;;0.10;0.10;;;;;;;;;;4991483;28;20038;-89
2024/02/02 15:13:33;;;;;;;0.10;0.10;;;;;;;;;;4988906;28;20026;-89
2024/02/02 15:15:59;;;;;;;0.10;0.10;;;;;;;;;;4994786;28;20030;-88
2024/02/02 15:18:24;;;;;;;0.03;0.03;;;8.00;99.90;;;;;;4993055;28;20034;-88
2024/02/02 15:20:50;;;;;;;0.00;0.00;;;8.10;99.90;;;;;;4995913;28;20031;-89
2024/02/02 15:23:16;;;;;;;0.00;0.00;;;;;;;;;;4993888;28;20026;-89
2024/02/02 15:25:41;;;;;;;0.10;0.10;;;8.40;99.90;;;;;;4993473;28;20364;-88
2024/02/02 15:28:07;;;;;;;0.10;0.10;;;;;;;;;;4995130;28;20035;-89